• Join FlightAware (Why Join?)
  • Login
  • US Flag 
09:17PM EDT


 

Airport Tracker/Info


-or-


 

Live Flight TrackerFlight Track Log ✈ LV-CSD ✈ 07-Sep-2013 ✈ KMIA - SAEZ / EZE

Flight Track Log - Related Links

Times and Time Zones

All times are in EDT time to prevent confusion due to time zone crossing. See the LV-CSD flight status page for this flight to view local times or setup timezone preferences in your user account.

Time Position Orientation Groundspeed Altitude Reporting Facility
EDT Latitude Longitude Course Direction KTS MPH feet Rate Location/Type
07:10PM 25.8010 -80.2870 90° East 125 144  Level FlightAware
07:10PM 25.8020 -80.2660 87° East 161 185 300 780 Climbing FlightAware
07:11PM 25.8030 -80.2560 84° East 163 188 500 1,380 Climbing FlightAware
07:11PM 25.7950 -80.2290 108° East 165 190 1,400 1,500 Climbing FlightAware
07:11PM 25.7880 -80.2130 116° Southeast 168 193 1,900 1,020 Climbing FlightAware
07:12PM 25.7850 -80.2070 119° Southeast 175 201 1,900 360 Level FlightAware
07:12PM 25.7800 -80.2020 138° Southeast 186 214 2,000 480 Climbing FlightAware
07:12PM 25.7770 -80.2000 149° Southeast 190 219 2,000 480 Level FlightAware
07:12PM 25.7700 -80.1980 166° South 197 227 2,100 600 Climbing FlightAware
07:12PM 25.7510 -80.1950 172° South 217 250 2,300 660 Climbing FlightAware
07:13PM 25.7250 -80.1920 174° South 241 277 2,600 780 Climbing FlightAware
07:13PM 25.7110 -80.1910 176° South 254 292 2,800 1,080 Climbing FlightAware
07:13PM 25.6860 -80.1890 176° South 272 313 3,200 1,560 Climbing FlightAware
07:14PM 25.6590 -80.1860 174° South 279 321 3,900 1,920 Climbing FlightAware
07:14PM 25.6380 -80.1840 175° South 282 325 4,400 1,980 Climbing FlightAware
07:14PM 25.6120 -80.1820 176° South 284 327 5,100 2,220 Climbing FlightAware
07:14PM 25.5960 -80.1800 174° South 284 327 5,600 2,100 Climbing FlightAware
07:15PM 25.5740 -80.1790 178° South 287 330 6,100 1,980 Climbing FlightAware
07:15PM 25.5500 -80.1770 176° South 289 333 6,800 1,980 Climbing FlightAware
07:15PM 25.5370 -80.1730 164° South 281 323 7,100 1,800 Climbing FlightAware
07:15PM 25.5250 -80.1640 146° Southeast 287 330 7,400 1,920 Climbing FlightAware
07:16PM 25.5080 -80.1530 150° Southeast 291 335 7,900 1,800 Climbing FlightAware
07:16PM 25.5030 -80.1510 160° South 282 325 8,000 1,980 Climbing FlightAware
07:16PM 25.4890 -80.1490 173° South 292 336 8,400 2,160 Climbing FlightAware
07:16PM 25.4680 -80.1480 178° South 294 338 8,900 1,860 Climbing FlightAware
07:16PM 25.4410 -80.1450 174° South 289 333 9,500 1,740 Climbing FlightAware
07:17PM 25.3930 -80.1400 175° South 295 339 10,500 1,080 Climbing FlightAware
07:18PM 25.3330 -80.1290 171° South 331 381 10,900 660 Climbing FlightAware
07:18PM 25.2890 -80.1100 159° South 352 405 11,300 720 Climbing FlightAware
07:19PM 25.2280 -80.1000 172° South 379 436 11,700 1,140 Climbing FlightAware
07:19PM 25.1630 -80.0930 174° South 388 447 12,700 1,500 Climbing FlightAware
07:20PM 25.1030 -80.0900 177° South 393 452 13,500 1,560 Climbing FlightAware
07:20PM 25.0600 -80.0850 174° South 397 457 14,200 1,680 Climbing FlightAware
07:21PM 25.0040 -80.0610 159° South 401 461 15,100 1,500 Climbing FlightAware
07:21PM 24.9440 -80.0340 158° South 408 470 15,900 1,320 Climbing FlightAware
07:22PM 24.8780 -80.0050 158° South 415 478 16,700 1,440 Climbing FlightAware
07:23PM 24.8120 -79.9770 159° South 416 479 17,700 2,100 Climbing FlightAware
07:23PM 24.7560 -79.9540 160° South 401 461 19,100 2,100 Climbing FlightAware
07:24PM 24.7010 -79.9300 158° South 394 453 20,000 1,200 Climbing FlightAware
07:24PM 24.6410 -79.9050 159° South 411 473 20,500 660 Climbing FlightAware
07:25PM 24.5750 -79.8770 159° South 428 493 20,800 600 Climbing FlightAware
07:26PM 24.4960 -79.8430 159° South 434 499 21,300 780 Climbing FlightAware
07:26PM 24.4250 -79.8140 160° South 449 517 21,900 660 Climbing FlightAware
07:27PM 24.3680 -79.7880 157° South 449 517 22,100 120 Climbing FlightAware
07:27PM 24.3090 -79.7620 158° South 449 517 22,100 1,260 Level FlightAware
07:28PM 24.2190 -79.7270 160° South 464 534 23,600 1,440 Climbing FlightAware
07:28PM 24.1540 -79.6990 159° South 465 535 23,800 120 Climbing FlightAware
07:29PM 24.0920 -79.6730 159° South 465 535 23,800 1,260 Level FlightAware
07:30PM 24.0120 -79.6400 159° South 462 532 25,300 1,200 Climbing FlightAware
07:30PM 23.9460 -79.6110 158° South 462 532 25,300  Level FlightAware
07:31PM 23.8840 -79.5830 158° South 462 532 25,300  Level FlightAware
07:32PM 23.8220 -79.5560 158° South 462 532 25,300  Level FlightAware
07:32PM 23.7610 -79.5290 158° South 462 532 25,300  Level FlightAware
07:33PM 23.7000 -79.5020 158° South 462 532 25,300  Level FlightAware
07:33PM 23.6400 -79.4750 158° South 462 532 25,300 60 Level FlightAware
07:39PM 23.0457 -79.1385 157° South  Level FlightAware Approximate
07:40PM 22.9269 -79.0842 157° South  Level FlightAware Approximate
07:41PM 22.8081 -79.0301 157° South  Level FlightAware Approximate
07:42PM 22.6892 -78.9761 157° South  Level FlightAware Approximate
07:43PM 22.5703 -78.9221 157° South  Level FlightAware Approximate
07:44PM 22.4514 -78.8683 157° South  Level FlightAware Approximate
07:45PM 22.3325 -78.8145 157° South  Level FlightAware Approximate
07:46PM 22.2136 -78.7608 157° South  Level FlightAware Approximate
07:47PM 22.0946 -78.7073 157° South  Level FlightAware Approximate
07:48PM 21.9757 -78.6538 157° South  Level FlightAware Approximate
07:49PM 21.8567 -78.6004 157° South  Level FlightAware Approximate
07:50PM 21.7377 -78.5471 157° South  Level FlightAware Approximate
07:51PM 21.6187 -78.4938 157° South  Level FlightAware Approximate
07:52PM 21.4996 -78.4407 157° South  Level FlightAware Approximate
07:53PM 21.3816 -78.3881 157° South  Level FlightAware Approximate
07:54PM 21.2635 -78.3356 157° South  Level FlightAware Approximate
07:55PM 21.1455 -78.2832 158° South  Level FlightAware Approximate
07:56PM 21.0274 -78.2308 158° South  Level FlightAware Approximate
07:57PM 20.9093 -78.1786 158° South  Level FlightAware Approximate
07:58PM 20.7912 -78.1264 158° South  Level FlightAware Approximate
07:59PM 20.6731 -78.0743 158° South  Level FlightAware Approximate
08:00PM 20.5550 -78.0223 158° South  Level FlightAware Approximate
08:01PM 20.4368 -77.9704 158° South  Level FlightAware Approximate
08:02PM 20.3186 -77.9185 158° South  Level FlightAware Approximate
08:03PM 20.2004 -77.8668 158° South  Level FlightAware Approximate
08:04PM 20.0822 -77.8151 158° South  Level FlightAware Approximate
08:05PM 19.9640 -77.7635 158° South  Level FlightAware Approximate
08:06PM 19.8458 -77.7119 158° South  Level FlightAware Approximate
08:07PM 19.7275 -77.6605 158° South  Level FlightAware Approximate
08:08PM 19.6093 -77.6091 158° South  Level FlightAware Approximate
08:09PM 19.4891 -77.5636 163° South  Level FlightAware Approximate
08:10PM 19.3669 -77.5239 163° South  Level FlightAware Approximate
08:11PM 19.2447 -77.4844 163° South  Level FlightAware Approximate
08:12PM 19.1225 -77.4449 163° South  Level FlightAware Approximate
08:13PM 19.0002 -77.4055 163° South  Level FlightAware Approximate
08:14PM 18.8780 -77.3661 163° South  Level FlightAware Approximate
08:15PM 18.7558 -77.3268 163° South  Level FlightAware Approximate
08:16PM 18.6335 -77.2875 163° South  Level FlightAware Approximate
08:17PM 18.5113 -77.2483 163° South  Level FlightAware Approximate
08:18PM 18.3890 -77.2092 163° South  Level FlightAware Approximate
08:19PM 18.2668 -77.1701 163° South  Level FlightAware Approximate
08:20PM 18.1445 -77.1311 163° South  Level FlightAware Approximate
08:21PM 18.0222 -77.0921 163° South  Level FlightAware Approximate
08:22PM 17.8999 -77.0532 163° South  Level FlightAware Approximate
08:23PM 17.7776 -77.0143 163° South  Level FlightAware Approximate
08:24PM 17.6553 -76.9755 163° South  Level FlightAware Approximate
08:25PM 17.5330 -76.9367 163° South  Level FlightAware Approximate
08:26PM 17.4106 -76.8980 163° South  Level FlightAware Approximate
08:27PM 17.2883 -76.8593 163° South  Level FlightAware Approximate
08:28PM 17.1660 -76.8207 163° South  Level FlightAware Approximate
08:29PM 17.0436 -76.7822 163° South  Level FlightAware Approximate
08:30PM 16.9213 -76.7437 163° South  Level FlightAware Approximate
08:31PM 16.7989 -76.7052 163° South  Level FlightAware Approximate
08:32PM 16.6765 -76.6668 163° South  Level FlightAware Approximate
08:33PM 16.5542 -76.6284 163° South  Level FlightAware Approximate
08:34PM 16.4317 -76.5903 163° South  Level FlightAware Approximate
08:35PM 16.3092 -76.5524 163° South  Level FlightAware Approximate
08:36PM 16.1868 -76.5145 163° South  Level FlightAware Approximate
08:37PM 16.0643 -76.4767 163° South  Level FlightAware Approximate
08:38PM 15.9417 -76.4389 163° South  Level FlightAware Approximate
08:39PM 15.8192 -76.4012 163° South  Level FlightAware Approximate
08:40PM 15.6967 -76.3635 164° South  Level FlightAware Approximate
08:41PM 15.5742 -76.3258 164° South  Level FlightAware Approximate
08:42PM 15.4517 -76.2882 164° South  Level FlightAware Approximate
08:43PM 15.3291 -76.2507 164° South  Level FlightAware Approximate
08:44PM 15.2066 -76.2131 164° South  Level FlightAware Approximate
08:45PM 15.0840 -76.1757 164° South  Level FlightAware Approximate
08:46PM 14.9614 -76.1383 164° South  Level FlightAware Approximate
08:47PM 14.8388 -76.1012 164° South  Level FlightAware Approximate
08:48PM 14.7162 -76.0640 164° South  Level FlightAware Approximate
08:49PM 14.5935 -76.0270 164° South  Level FlightAware Approximate
08:50PM 14.4709 -75.9899 164° South  Level FlightAware Approximate
08:51PM 14.3483 -75.9529 164° South  Level FlightAware Approximate
08:52PM 14.2256 -75.9160 164° South  Level FlightAware Approximate
08:53PM 14.1029 -75.8791 164° South  Level FlightAware Approximate
08:54PM 13.9803 -75.8422 164° South  Level FlightAware Approximate
08:55PM 13.8576 -75.8054 164° South  Level FlightAware Approximate
08:56PM 13.7349 -75.7686 164° South  Level FlightAware Approximate
08:57PM 13.6122 -75.7318 164° South  Level FlightAware Approximate
08:58PM 13.4895 -75.6951 164° South  Level FlightAware Approximate
08:59PM 13.3669 -75.6584 164° South  Level FlightAware Approximate
09:00PM 13.2442 -75.6218 164° South  Level FlightAware Approximate
09:01PM 13.1215 -75.5852 164° South  Level FlightAware Approximate
09:02PM 12.9987 -75.5486 164° South  Level FlightAware Approximate
09:03PM 12.8760 -75.5121 164° South  Level FlightAware Approximate
09:04PM 12.7533 -75.4756 164° South  Level FlightAware Approximate
09:05PM 12.6306 -75.4391 164° South  Level FlightAware Approximate
09:06PM 12.5078 -75.4027 164° South  Level FlightAware Approximate
09:07PM 12.3851 -75.3663 164° South  Level FlightAware Approximate
09:08PM 12.2624 -75.3299 164° South  Level FlightAware Approximate
09:08PM 11.7210 -75.1010 164° South 475 547 35,000  Level FlightAware
09:08PM 11.6560 -75.0840 166° South 477 549 35,000  Level FlightAware
09:09PM 11.5600 -75.0590 166° South 478 550 35,000  Level FlightAware
09:10PM 11.4850 -75.0390 165° South 476 548 35,000  Level FlightAware
09:10PM 11.4220 -75.0230 166° South 475 547 35,000  Level FlightAware
09:11PM 11.3440 -75.0030 166° South 474 545 35,000  Level FlightAware
09:11PM 11.2580 -74.9800 165° South 473 544 35,000  Level FlightAware
09:12PM 11.1850 -74.9610 166° South 475 547 35,000  Level FlightAware
09:12PM 11.1100 -74.9420 166° South 475 547 35,000  Level FlightAware
09:13PM 11.0380 -74.9230 165° South 474 545 35,000  Level FlightAware
09:14PM 10.9630 -74.9030 165° South 474 545 35,000  Level FlightAware
09:14PM 10.8870 -74.8830 166° South 474 545 35,000  Level FlightAware
09:15PM 10.8100 -74.8640 166° South 474 545 35,000  Level FlightAware
09:15PM 10.7260 -74.8410 165° South 475 547 35,000  Level FlightAware
09:16PM 10.6630 -74.8230 164° South 475 547 35,000  Level FlightAware
09:17PM 10.5880 -74.8010 164° South 476 548 35,000  Level FlightAware
09:17PM 10.5210 -74.7820 164° South 476 548 35,000  Level FlightAware
09:18PM 10.4290 -74.7560 164° South 473 544 35,000  Level FlightAware
09:18PM 10.3670 -74.7390 165° South 471 542 35,000  Level FlightAware
09:19PM 10.3090 -74.7220 164° South 470 541 35,000  Level FlightAware
09:19PM 10.2190 -74.6960 164° South 470 541 35,000  Level FlightAware
09:20PM 10.1380 -74.6740 165° South 470 541 35,000  Level FlightAware
09:21PM 10.0760 -74.6560 164° South 470 541 35,000  Level FlightAware
09:21PM 9.9990 -74.6340 164° South 471 542 35,000  Level FlightAware
09:22PM 9.9240 -74.6130 165° South 471 542 35,000  Level FlightAware
09:22PM 9.8500 -74.5920 164° South 470 541 35,000  Level FlightAware
09:23PM 9.7790 -74.5720 164° South 470 541 35,000  Level FlightAware
09:24PM 9.7040 -74.5510 165° South 470 541 35,000  Level FlightAware
09:24PM 9.6190 -74.5270 164° South 471 542 35,000  Level FlightAware
09:25PM 9.5570 -74.5100 165° South 470 541 35,000  Level FlightAware
09:25PM 9.4830 -74.4890 164° South 469 540 35,000  Level FlightAware
09:26PM 9.3990 -74.4650 164° South 469 540 35,000  Level FlightAware
09:26PM 9.3350 -74.4470 164° South 469 540 35,000  Level FlightAware
09:27PM 9.2620 -74.4270 165° South 469 540 35,000  Level FlightAware
09:28PM 9.1890 -74.4070 165° South 469 540 35,000  Level FlightAware
09:28PM 9.1160 -74.3860 164° South 470 541 35,000  Level FlightAware
09:29PM 9.0410 -74.3650 165° South 469 540 35,000  Level FlightAware
09:29PM 8.9680 -74.3440 164° South 467 537 35,000  Level FlightAware
09:30PM 8.8960 -74.3240 165° South 465 535 35,000  Level FlightAware
09:31PM 8.8280 -74.3050 165° South 465 535 35,000  Level FlightAware
09:31PM 8.7540 -74.2850 165° South 465 535 35,000  Level FlightAware
09:32PM 8.6780 -74.2630 164° South 466 536 35,000  Level FlightAware
09:32PM 8.6030 -74.2420 165° South 466 536 35,000  Level FlightAware
09:33PM 8.5100 -74.2160 165° South 466 536 35,000  Level FlightAware
09:34PM 8.4400 -74.1970 165° South 465 535 35,000  Level FlightAware
09:34PM 8.3640 -74.1760 165° South 465 535 35,000  Level FlightAware
09:35PM 8.2920 -74.1550 164° South 466 536 35,000  Level FlightAware
09:35PM 8.2280 -74.1370 164° South 465 535 35,000  Level FlightAware
09:36PM 8.1560 -74.1170 165° South 465 535 35,000  Level FlightAware
09:37PM 8.0810 -74.0970 165° South 465 535 35,000  Level FlightAware
09:37PM 8.0200 -74.0790 164° South 465 535 35,000  Level FlightAware
09:38PM 7.9370 -74.0560 165° South 466 536 35,000  Level FlightAware
09:38PM 7.8750 -74.0390 165° South 467 537 35,000  Level FlightAware
09:39PM 7.7910 -74.0160 165° South 468 539 35,000  Level FlightAware
09:40PM 7.6970 -73.9900 165° South 469 540 35,000  Level FlightAware
09:40PM 7.6220 -73.9700 165° South 469 540 35,000  Level FlightAware
09:41PM 7.5490 -73.9500 165° South 469 540 35,000  Level FlightAware
09:41PM 7.4770 -73.9300 165° South 467 537 35,000  Level FlightAware
09:42PM 7.3820 -73.9040 165° South 466 536 35,000  Level FlightAware
09:43PM 7.3160 -73.8850 164° South 465 535 35,000  Level FlightAware
09:43PM 7.2410 -73.8650 165° South 465 535 35,000  Level FlightAware
09:44PM 7.1780 -73.8480 165° South 465 535 35,000  Level FlightAware
09:44PM 7.0810 -73.8210 165° South 465 535 35,000  Level FlightAware
09:45PM 7.0110 -73.8010 164° South 465 535 35,000  Level FlightAware
09:46PM 6.9380 -73.7820 166° South 463 533 35,000  Level FlightAware
09:46PM 6.8630 -73.7630 166° South 464 534 35,000  Level FlightAware
09:47PM 6.7930 -73.7450 166° South 462 532 35,000  Level FlightAware
09:47PM 6.7090 -73.7230 165° South 461 531 35,000  Level FlightAware
09:48PM 6.6410 -73.7050 165° South 458 527 35,000  Level FlightAware
09:49PM 6.5680 -73.6860 166° South 460 529 35,000  Level FlightAware
09:49PM 6.4940 -73.6670 166° South 460 529 35,000  Level FlightAware
09:50PM 6.4270 -73.6490 165° South 461 531 35,000  Level FlightAware
09:50PM 6.3530 -73.6300 166° South 461 531 35,000  Level FlightAware
09:51PM 6.2860 -73.6120 165° South 461 531 35,000  Level FlightAware
09:51PM 6.2110 -73.5930 166° South 461 531 35,000  Level FlightAware
09:52PM 6.1360 -73.5730 165° South 463 533 35,000  Level FlightAware
09:53PM 6.0580 -73.5530 166° South 465 535 35,000  Level FlightAware
09:53PM 5.9850 -73.5340 165° South 464 534 35,000  Level FlightAware
09:54PM 5.9180 -73.5160 165° South 463 533 35,000  Level FlightAware
09:54PM 5.8410 -73.4960 166° South 463 533 35,000  Level FlightAware
09:55PM 5.7680 -73.4770 165° South 463 533 35,000  Level FlightAware
09:56PM 5.7010 -73.4600 166° South 464 534 35,000  Level FlightAware
09:56PM 5.6260 -73.4400 165° South 465 535 35,000  Level FlightAware
09:57PM 5.5500 -73.4200 165° South 466 536 35,000  Level FlightAware
09:57PM 5.4740 -73.4010 166° South 469 540 35,000  Level FlightAware
09:58PM 5.3980 -73.3810 165° South 470 541 35,000  Level FlightAware
09:58PM 5.3320 -73.3640 166° South 471 542 35,000  Level FlightAware
09:59PM 5.2530 -73.3440 166° South 474 545 35,000  Level FlightAware
10:00PM 5.1770 -73.3240 165° South 474 545 35,000  Level FlightAware
10:00PM 5.1090 -73.3060 165° South 473 544 35,000  Level FlightAware
10:01PM 5.0320 -73.2860 165° South 473 544 35,000  Level FlightAware
10:01PM 4.9560 -73.2670 166° South 472 543 35,000  Level FlightAware
10:02PM 4.8790 -73.2470 165° South 473 544 35,000  Level FlightAware
10:03PM 4.8100 -73.2290 165° South 472 543 35,000  Level FlightAware
10:03PM 4.7320 -73.2090 166° South 473 544 35,000  Level FlightAware
10:04PM 4.6550 -73.1890 165° South 475 547 35,000  Level FlightAware
10:04PM 4.5860 -73.1720 166° South 476 548 35,000  Level FlightAware
10:05PM 4.5090 -73.1520 165° South 476 548 35,000  Level FlightAware
10:05PM 4.4330 -73.1320 165° South 472 543 35,000  Level FlightAware
10:06PM 4.3370 -73.1070 165° South 469 540 35,000  Level FlightAware
10:07PM 4.2730 -73.0900 165° South 469 540 35,000  Level FlightAware
10:08PM 4.2090 -73.0730 165° South 469 540 35,000  Level FlightAware
10:08PM 4.1440 -73.0550 165° South 469 540 35,000  Level FlightAware
10:09PM 4.0800 -73.0380 165° South 469 540 35,000  Level FlightAware
10:09PM 4.0140 -73.0200 165° South 469 540 35,000  Level FlightAware
10:10PM 3.9500 -73.0030 165° South 469 540 35,000  Level FlightAware
10:11PM 3.8860 -72.9860 165° South 469 540 35,000  Level FlightAware
10:11PM 3.8100 -72.9650 165° South 469 540 35,000  Level FlightAware
10:12PM 3.7450 -72.9480 165° South 469 540 35,000  Level FlightAware
10:12PM 3.6810 -72.9310 165° South 469 540 35,000  Level FlightAware
10:13PM 3.6170 -72.9140 165° South 469 540 35,000  Level FlightAware
10:14PM 3.5530 -72.8970 165° South 469 540 35,000  Level FlightAware
10:14PM 3.4890 -72.8790 164° South 469 540 35,000  Level FlightAware
10:15PM 3.4250 -72.8620 165° South 469 540 35,000  Level FlightAware
10:15PM 3.3610 -72.8450 165° South 469 540 35,000  Level FlightAware
10:18PM 3.1202 -72.7365 156° South  Level FlightAware Approximate
10:19PM 3.0037 -72.6840 156° South  Level FlightAware Approximate
10:20PM 2.8871 -72.6315 156° South  Level FlightAware Approximate
10:21PM 2.7706 -72.5790 156° South  Level FlightAware Approximate
10:22PM 2.6541 -72.5265 156° South  Level FlightAware Approximate
10:23PM 2.5375 -72.4741 156° South  Level FlightAware Approximate
10:24PM 2.4210 -72.4216 156° South  Level FlightAware Approximate
10:25PM 2.3045 -72.3692 156° South  Level FlightAware Approximate
10:26PM 2.1879 -72.3167 156° South  Level FlightAware Approximate
10:27PM 2.0714 -72.2643 156° South  Level FlightAware Approximate
10:28PM 1.9548 -72.2119 156° South  Level FlightAware Approximate
10:29PM 1.8383 -72.1595 156° South  Level FlightAware Approximate
10:30PM 1.7218 -72.1070 156° South  Level FlightAware Approximate
10:31PM 1.6052 -72.0546 156° South  Level FlightAware Approximate
10:32PM 1.4887 -72.0023 156° South  Level FlightAware Approximate
10:33PM 1.3721 -71.9499 156° South  Level FlightAware Approximate
10:34PM 1.2556 -71.8975 156° South  Level FlightAware Approximate
10:35PM 1.1390 -71.8451 156° South  Level FlightAware Approximate
10:36PM 1.0225 -71.7927 156° South  Level FlightAware Approximate
10:37PM 0.9059 -71.7404 156° South  Level FlightAware Approximate
10:38PM 0.7893 -71.6880 156° South  Level FlightAware Approximate
10:39PM 0.6728 -71.6356 156° South  Level FlightAware Approximate
10:40PM 0.5562 -71.5833 156° South  Level FlightAware Approximate
10:41PM 0.4397 -71.5309 156° South  Level FlightAware Approximate
10:42PM 0.3231 -71.4786 156° South  Level FlightAware Approximate
10:43PM 0.2066 -71.4262 156° South  Level FlightAware Approximate
10:44PM 0.0900 -71.3738 156° South  Level FlightAware Approximate
10:45PM -0.0266 -71.3215 156° South  Level FlightAware Approximate
10:46PM -0.1431 -71.2691 156° South  Level FlightAware Approximate
10:47PM -0.2597 -71.2168 156° South  Level FlightAware Approximate
10:48PM -0.3762 -71.1644 156° South  Level FlightAware Approximate
10:49PM -0.4928 -71.1121 156° South  Level FlightAware Approximate
10:50PM -0.6094 -71.0597 156° South  Level FlightAware Approximate
10:51PM -0.7259 -71.0073 156° South  Level FlightAware Approximate
10:52PM -0.8425 -70.9550 156° South  Level FlightAware Approximate
10:53PM -0.9590 -70.9026 156° South  Level FlightAware Approximate
10:54PM -1.0756 -70.8502 156° South  Level FlightAware Approximate
10:55PM -1.1921 -70.7979 156° South  Level FlightAware Approximate
10:56PM -1.3087 -70.7455 156° South  Level FlightAware Approximate
10:57PM -1.4252 -70.6931 156° South  Level FlightAware Approximate
10:58PM -1.5418 -70.6407 156° South  Level FlightAware Approximate
10:59PM -1.6583 -70.5883 156° South  Level FlightAware Approximate
11:00PM -1.7749 -70.5359 156° South  Level FlightAware Approximate
11:01PM -1.8914 -70.4835 156° South  Level FlightAware Approximate
11:02PM -2.0080 -70.4311 156° South  Level FlightAware Approximate
11:03PM -2.1245 -70.3787 156° South  Level FlightAware Approximate
11:04PM -2.2411 -70.3262 156° South  Level FlightAware Approximate
11:05PM -2.3576 -70.2738 156° South  Level FlightAware Approximate
11:06PM -2.4741 -70.2213 156° South  Level FlightAware Approximate
11:07PM -2.5907 -70.1689 156° South  Level FlightAware Approximate
11:08PM -2.7072 -70.1164 156° South  Level FlightAware Approximate
11:09PM -2.8237 -70.0639 156° South  Level FlightAware Approximate
11:10PM -2.9403 -70.0114 156° South  Level FlightAware Approximate
11:11PM -3.0568 -69.9589 156° South  Level FlightAware Approximate
11:12PM -3.1733 -69.9064 156° South  Level FlightAware Approximate
11:13PM -3.2898 -69.8539 156° South  Level FlightAware Approximate
11:14PM -3.4063 -69.8014 156° South  Level FlightAware Approximate
11:15PM -3.5229 -69.7488 156° South  Level FlightAware Approximate
11:16PM -3.6394 -69.6963 156° South  Level FlightAware Approximate
11:17PM -3.7559 -69.6437 156° South  Level FlightAware Approximate
11:18PM -3.8724 -69.5911 156° South  Level FlightAware Approximate
11:19PM -3.9889 -69.5385 156° South  Level FlightAware Approximate
11:20PM -4.1054 -69.4859 156° South  Level FlightAware Approximate
11:21PM -4.2219 -69.4333 156° South  Level FlightAware Approximate
11:22PM -4.3384 -69.3806 156° South  Level FlightAware Approximate
11:23PM -4.4549 -69.3279 156° South  Level FlightAware Approximate
11:24PM -4.5714 -69.2753 156° South  Level FlightAware Approximate
11:25PM -4.6878 -69.2226 156° South  Level FlightAware Approximate
11:26PM -4.8043 -69.1699 156° South  Level FlightAware Approximate
11:27PM -4.9208 -69.1171 156° South  Level FlightAware Approximate
11:28PM -5.0373 -69.0644 156° South  Level FlightAware Approximate
11:29PM -5.1537 -69.0116 156° South  Level FlightAware Approximate
11:30PM -5.2702 -68.9588 156° South  Level FlightAware Approximate
11:31PM -5.3866 -68.9060 156° South  Level FlightAware Approximate
11:32PM -5.5031 -68.8532 156° South  Level FlightAware Approximate
11:33PM -5.6195 -68.8003 156° South  Level FlightAware Approximate
11:34PM -5.7360 -68.7475 156° South  Level FlightAware Approximate
11:35PM -5.8524 -68.6946 156° South  Level FlightAware Approximate
11:36PM -5.9688 -68.6416 156° South  Level FlightAware Approximate
11:37PM -6.0853 -68.5887 156° South  Level FlightAware Approximate
11:38PM -6.2017 -68.5357 156° South  Level FlightAware Approximate
11:39PM -6.3181 -68.4828 156° South  Level FlightAware Approximate
11:40PM -6.4345 -68.4297 156° South  Level FlightAware Approximate
11:41PM -6.5509 -68.3767 156° South  Level FlightAware Approximate
11:42PM -6.6673 -68.3237 156° South  Level FlightAware Approximate
11:43PM -6.7837 -68.2706 156° South  Level FlightAware Approximate
11:44PM -6.9001 -68.2175 156° South  Level FlightAware Approximate
11:45PM -7.0165 -68.1643 156° South  Level FlightAware Approximate
11:46PM -7.1329 -68.1112 156° South  Level FlightAware Approximate
11:47PM -7.2492 -68.0580 156° South  Level FlightAware Approximate
11:48PM -7.3656 -68.0048 156° South  Level FlightAware Approximate
11:49PM -7.4820 -67.9515 156° South  Level FlightAware Approximate
11:50PM -7.5983 -67.8983 156° South  Level FlightAware Approximate
11:51PM -7.7147 -67.8450 156° South  Level FlightAware Approximate
11:52PM -7.8310 -67.7916 156° South  Level FlightAware Approximate
11:53PM -7.9473 -67.7383 156° South  Level FlightAware Approximate
11:54PM -8.0637 -67.6849 156° South  Level FlightAware Approximate
11:55PM -8.1800 -67.6315 156° South  Level FlightAware Approximate
11:56PM -8.2963 -67.5780 156° South  Level FlightAware Approximate
11:57PM -8.4126 -67.5245 156° South  Level FlightAware Approximate
11:58PM -8.5289 -67.4710 156° South  Level FlightAware Approximate
11:59PM -8.6452 -67.4175 156° South  Level FlightAware Approximate
12:00AM -8.7614 -67.3639 156° South  Level FlightAware Approximate
12:01AM -8.8777 -67.3103 156° South  Level FlightAware Approximate
12:02AM -8.9940 -67.2566 155° Southeast  Level FlightAware Approximate
12:03AM -9.1103 -67.2029 155° Southeast  Level FlightAware Approximate
12:04AM -9.2265 -67.1492 155° Southeast  Level FlightAware Approximate
12:05AM -9.3427 -67.0955 155° Southeast  Level FlightAware Approximate
12:06AM -9.4590 -67.0417 155° Southeast  Level FlightAware Approximate
12:07AM -9.5752 -66.9878 155° Southeast  Level FlightAware Approximate
12:08AM -9.6914 -66.9340 155° Southeast  Level FlightAware Approximate
12:09AM -9.8076 -66.8801 155° Southeast  Level FlightAware Approximate
12:10AM -9.9238 -66.8261 155° Southeast  Level FlightAware Approximate
12:11AM -10.0400 -66.7722 155° Southeast  Level FlightAware Approximate
12:12AM -10.1562 -66.7181 155° Southeast  Level FlightAware Approximate
12:13AM -10.2724 -66.6641 155° Southeast  Level FlightAware Approximate
12:14AM -10.3885 -66.6100 155° Southeast  Level FlightAware Approximate
12:15AM -10.5047 -66.5559 155° Southeast  Level FlightAware Approximate
12:16AM -10.6209 -66.5017 155° Southeast  Level FlightAware Approximate
12:17AM -10.7370 -66.4475 155° Southeast  Level FlightAware Approximate
12:18AM -10.8531 -66.3932 155° Southeast  Level FlightAware Approximate
12:19AM -10.9692 -66.3389 155° Southeast  Level FlightAware Approximate
12:20AM -11.0854 -66.2846 155° Southeast  Level FlightAware Approximate
12:21AM -11.2015 -66.2302 155° Southeast  Level FlightAware Approximate
12:22AM -11.3175 -66.1758 155° Southeast  Level FlightAware Approximate
12:23AM -11.4336 -66.1213 155° Southeast  Level FlightAware Approximate
12:24AM -11.5497 -66.0668 155° Southeast  Level FlightAware Approximate
12:25AM -11.6658 -66.0122 155° Southeast  Level FlightAware Approximate
12:26AM -11.7818 -65.9576 155° Southeast  Level FlightAware Approximate
12:27AM -11.8979 -65.9029 155° Southeast  Level FlightAware Approximate
12:28AM -12.0139 -65.8482 155° Southeast  Level FlightAware Approximate
12:29AM -12.1299 -65.7935 155° Southeast  Level FlightAware Approximate
12:30AM -12.2459 -65.7387 155° Southeast  Level FlightAware Approximate
12:31AM -12.3619 -65.6838 155° Southeast  Level FlightAware Approximate
12:32AM -12.4779 -65.6289 155° Southeast  Level FlightAware Approximate
12:33AM -12.5939 -65.5740 155° Southeast  Level FlightAware Approximate
12:34AM -12.7098 -65.5190 155° Southeast  Level FlightAware Approximate
12:35AM -12.8258 -65.4640 155° Southeast  Level FlightAware Approximate
12:36AM -12.9417 -65.4089 155° Southeast  Level FlightAware Approximate
12:37AM -13.0576 -65.3537 155° Southeast  Level FlightAware Approximate
12:38AM -13.1736 -65.2985 155° Southeast  Level FlightAware Approximate
12:39AM -13.2895 -65.2433 155° Southeast  Level FlightAware Approximate
12:40AM -13.4054 -65.1880 155° Southeast  Level FlightAware Approximate
12:41AM -13.5212 -65.1326 155° Southeast  Level FlightAware Approximate
12:42AM -13.6371 -65.0772 155° Southeast  Level FlightAware Approximate
12:43AM -13.7530 -65.0218 155° Southeast  Level FlightAware Approximate
12:44AM -13.8688 -64.9662 155° Southeast  Level FlightAware Approximate
12:45AM -13.9846 -64.9107 155° Southeast  Level FlightAware Approximate
12:46AM -14.1005 -64.8550 155° Southeast  Level FlightAware Approximate
12:47AM -14.2163 -64.7993 155° Southeast  Level FlightAware Approximate
12:48AM -14.3321 -64.7436 155° Southeast  Level FlightAware Approximate
12:49AM -14.4479 -64.6878 155° Southeast  Level FlightAware Approximate
12:50AM -14.5636 -64.6319 155° Southeast  Level FlightAware Approximate
12:51AM -14.6794 -64.5760 155° Southeast  Level FlightAware Approximate
12:52AM -14.7951 -64.5200 155° Southeast  Level FlightAware Approximate
12:53AM -14.9108 -64.4640 155° Southeast  Level FlightAware Approximate
12:54AM -15.0266 -64.4079 155° Southeast  Level FlightAware Approximate
12:55AM -15.1423 -64.3517 155° Southeast  Level FlightAware Approximate
12:56AM -15.2579 -64.2955 155° Southeast  Level FlightAware Approximate
12:57AM -15.3736 -64.2392 155° Southeast  Level FlightAware Approximate
12:58AM -15.4893 -64.1829 155° Southeast  Level FlightAware Approximate
12:59AM -15.6049 -64.1265 155° Southeast  Level FlightAware Approximate
01:00AM -15.7205 -64.0700 155° Southeast  Level FlightAware Approximate
01:01AM -15.8362 -64.0135 155° Southeast  Level FlightAware Approximate
01:01AM -17.0230 -63.5320 155° Southeast 463 533 37,000  Level FlightAware
01:02AM -15.9518 -63.9569 155° Southeast  Level FlightAware Approximate
01:02AM -17.0900 -63.4900 149° Southeast 464 534 37,000  Level FlightAware
01:03AM -17.1740 -63.4360 148° Southeast 465 535 37,000  Level FlightAware
01:03AM -17.2310 -63.4010 150° Southeast 465 535 37,000  Level FlightAware
01:04AM -17.3180 -63.3450 148° Southeast 468 539 37,000  Level FlightAware
01:04AM -17.3800 -63.3050 148° Southeast 467 537 37,000  Level FlightAware
01:05AM -17.4490 -63.2610 149° Southeast 468 539 37,000  Level FlightAware
01:06AM -17.5140 -63.2200 149° Southeast 465 535 37,000  Level FlightAware
01:06AM -17.5890 -63.1830 155° Southeast 463 533 37,000  Level FlightAware
01:07AM -17.6490 -63.1630 162° South 459 528 37,000  Level FlightAware
01:07AM -17.7420 -63.1450 170° South 460 529 37,000  Level FlightAware
01:08AM -17.8090 -63.1410 177° South 461 531 37,000  Level FlightAware
01:09AM -17.8930 -63.1390 179° South 461 531 37,000  Level FlightAware
01:09AM -17.9660 -63.1370 179° South 460 529 37,000  Level FlightAware
01:10AM -18.0830 -63.1330 178° South 459 528 37,000  Level FlightAware
01:11AM -18.1400 -63.1310 178° South 459 528 37,000  Level FlightAware
01:11AM -18.2070 -63.1280 178° South 459 528 37,000  Level FlightAware
01:12AM -18.2720 -63.1260 178° South 459 528 37,000  Level FlightAware
01:13AM -18.3390 -63.1230 178° South 459 528 37,000  Level FlightAware
01:13AM -18.4040 -63.1210 178° South 459 528 37,000  Level FlightAware
01:14AM -18.4690 -63.1180 177° South 459 528 37,000  Level FlightAware
01:14AM -18.5340 -63.1160 178° South 459 528 37,000  Level FlightAware
01:15AM -18.5990 -63.1140 178° South 459 528 37,000  Level FlightAware
01:16AM -18.6640 -63.1110 177° South 459 528 37,000  Level FlightAware
01:16AM -18.7280 -63.1090 178° South 459 528 37,000  Level FlightAware
01:17AM -18.7930 -63.1060 177° South 459 528 37,000  Level FlightAware
01:17AM -18.8580 -63.1040 178° South 459 528 37,000  Level FlightAware
01:18AM -18.9230 -63.1020 178° South 459 528 37,000  Level FlightAware
01:19AM -18.9900 -63.0990 178° South 459 528 37,000  Level FlightAware
01:19AM -19.0550 -63.0970 178° South 459 528 37,000  Level FlightAware
01:22AM -19.3452 -63.0652 174° South  Level FlightAware Approximate
01:23AM -19.4723 -63.0513 174° South  Level FlightAware Approximate
01:24AM -19.5994 -63.0373 174° South  Level FlightAware Approximate
01:25AM -19.7265 -63.0233 174° South  Level FlightAware Approximate
01:26AM -19.8536 -63.0093 174° South  Level FlightAware Approximate
01:27AM -19.9807 -62.9953 174° South  Level FlightAware Approximate
01:28AM -20.1078 -62.9812 174° South  Level FlightAware Approximate
01:29AM -20.2349 -62.9672 174° South  Level FlightAware Approximate
01:30AM -20.3620 -62.9531 174° South  Level FlightAware Approximate
01:31AM -20.4890 -62.9389 174° South  Level FlightAware Approximate
01:32AM -20.6161 -62.9248 174° South  Level FlightAware Approximate
01:33AM -20.7432 -62.9106 174° South  Level FlightAware Approximate
01:34AM -20.8703 -62.8964 174° South  Level FlightAware Approximate
01:35AM -20.9974 -62.8822 174° South  Level FlightAware Approximate
01:36AM -21.1245 -62.8680 174° South  Level FlightAware Approximate
01:37AM -21.2516 -62.8537 174° South  Level FlightAware Approximate
01:38AM -21.3786 -62.8394 174° South  Level FlightAware Approximate
01:39AM -21.5057 -62.8251 174° South  Level FlightAware Approximate
01:40AM -21.6328 -62.8107 174° South  Level FlightAware Approximate
01:41AM -21.7599 -62.7964 174° South  Level FlightAware Approximate
01:42AM -21.8870 -62.7820 174° South  Level FlightAware Approximate
01:43AM -22.0140 -62.7676 174° South  Level FlightAware Approximate
01:44AM -22.1411 -62.7531 174° South  Level FlightAware Approximate
01:45AM -22.2682 -62.7386 174° South  Level FlightAware Approximate
01:46AM -22.3952 -62.7241 174° South  Level FlightAware Approximate
01:47AM -22.5223 -62.7096 174° South  Level FlightAware Approximate
01:48AM -22.6494 -62.6951 174° South  Level FlightAware Approximate
01:49AM -22.7764 -62.6805 174° South  Level FlightAware Approximate
01:50AM -22.9035 -62.6659 174° South  Level FlightAware Approximate
01:51AM -23.0306 -62.6512 174° South  Level FlightAware Approximate
01:52AM -23.1576 -62.6366 174° South  Level FlightAware Approximate
01:53AM -23.2847 -62.6219 174° South  Level FlightAware Approximate
01:54AM -23.4118 -62.6072 174° South  Level FlightAware Approximate
01:55AM -23.5388 -62.5924 174° South  Level FlightAware Approximate
01:56AM -23.6659 -62.5777 174° South  Level FlightAware Approximate
01:57AM -23.7929 -62.5629 174° South  Level FlightAware Approximate
01:58AM -23.9200 -62.5480 174° South  Level FlightAware Approximate
01:59AM -24.0470 -62.5332 174° South  Level FlightAware Approximate
02:00AM -24.1741 -62.5183 174° South  Level FlightAware Approximate
02:01AM -24.3011 -62.5034 174° South  Level FlightAware Approximate
02:02AM -24.4282 -62.4884 174° South  Level FlightAware Approximate
02:03AM -24.5552 -62.4734 174° South  Level FlightAware Approximate
02:04AM -24.6823 -62.4584 174° South  Level FlightAware Approximate
02:05AM -24.8093 -62.4434 174° South  Level FlightAware Approximate
02:06AM -24.9364 -62.4283 174° South  Level FlightAware Approximate
02:07AM -25.0634 -62.4132 174° South  Level FlightAware Approximate
02:08AM -25.1905 -62.3981 174° South  Level FlightAware Approximate
02:09AM -25.3175 -62.3829 174° South  Level FlightAware Approximate
02:10AM -25.4445 -62.3677 174° South  Level FlightAware Approximate
02:11AM -25.5716 -62.3525 174° South  Level FlightAware Approximate
02:12AM -25.6986 -62.3372 174° South  Level FlightAware Approximate
02:13AM -25.8256 -62.3219 174° South  Level FlightAware Approximate
02:13AM -25.9490 -62.8240 174° South 440 506 37,000  Level FlightAware
02:14AM -25.9527 -62.3066 174° South  Level FlightAware Approximate
02:14AM -26.0360 -62.8050 169° South 439 505 37,000  Level FlightAware
02:15AM -26.1030 -62.7900 169° South 428 493 37,000  Level FlightAware
02:15AM -26.1880 -62.7710 169° South 431 496 37,000  Level FlightAware
02:16AM -26.2580 -62.7560 169° South 430 495 37,000  Level FlightAware
02:17AM -26.3600 -62.7330 169° South 420 483 37,000  Level FlightAware
02:17AM -26.4290 -62.7180 169° South 419 482 37,000  Level FlightAware
02:18AM -26.4990 -62.7020 168° South 420 483 37,000  Level FlightAware
02:19AM -26.5770 -62.6850 169° South 421 484 37,000  Level FlightAware
02:19AM -26.6480 -62.6690 169° South 424 488 37,000  Level FlightAware
02:20AM -26.7150 -62.6540 169° South 424 488 37,000  Level FlightAware
02:21AM -26.8000 -62.6350 169° South 424 488 37,000  Level FlightAware
02:21AM -26.8000 -62.6350 169° South 425 489 37,000  Level FlightAware
02:22AM -26.9350 -62.6050 169° South 426 490 37,000  Level FlightAware
02:23AM -27.0050 -62.5900 169° South 426 490 37,000  Level FlightAware
02:23AM -27.1110 -62.5660 169° South 426 490 37,000  Level FlightAware
02:24AM -27.1700 -62.5530 169° South 426 490 37,000  Level FlightAware
02:25AM -27.2290 -62.5400 169° South 426 490 37,000  Level FlightAware
02:25AM -27.2890 -62.5270 169° South 426 490 37,000  Level FlightAware
02:26AM -27.3480 -62.5140 169° South 426 490 37,000  Level FlightAware
02:26AM -27.4070 -62.5010 169° South 426 490 37,000  Level FlightAware
02:27AM -27.4660 -62.4880 169° South 426 490 37,000  Level FlightAware
02:28AM -27.5250 -62.4750 169° South 426 490 37,000  Level FlightAware
02:28AM -27.5850 -62.4620 169° South 426 490 37,000  Level FlightAware
02:29AM -27.6440 -62.4490 169° South 426 490 37,000  Level FlightAware
02:29AM -27.7030 -62.4360 169° South 426 490 37,000  Level FlightAware
02:30AM -27.7640 -62.4230 169° South 426 490 37,000  Level FlightAware
02:31AM -27.8250 -62.4090 169° South 426 490 37,000  Level FlightAware
02:31AM -27.8840 -62.3960 169° South 426 490 37,000  Level FlightAware
02:32AM -27.9430 -62.3830 169° South 426 490 37,000  Level FlightAware
02:32AM -28.0020 -62.3700 169° South 426 490 37,000  Level FlightAware
02:35AM -28.2438 -62.2438 155° Southeast  Level Estimated
02:36AM -28.3598 -62.1830 155° Southeast  Level Estimated
02:37AM -28.4758 -62.1221 155° Southeast  Level Estimated
02:38AM -28.5918 -62.0611 155° Southeast  Level Estimated
02:39AM -28.7078 -61.9999 155° Southeast  Level Estimated
02:39AM -28.9840 -62.1350 155° Southeast 456 525 37,000  Level FlightAware
02:39AM -29.0490 -62.1200 169° South 458 527 37,000  Level FlightAware
02:40AM -29.1160 -62.1040 168° South 458 527 37,000  Level FlightAware
02:41AM -29.1790 -62.0880 167° South 458 527 37,000  Level FlightAware
02:41AM -29.2620 -62.0700 169° South 458 527 37,000  Level FlightAware
02:42AM -29.3570 -62.0410 165° South 460 529 37,000  Level FlightAware
02:43AM -29.4200 -62.0090 156° South 460 529 37,000  Level FlightAware
02:43AM -29.4800 -61.9790 156° South 460 529 37,000  Level FlightAware
02:44AM -29.5390 -61.9480 155° Southeast 460 529 37,000  Level FlightAware
02:44AM -29.5990 -61.9180 157° South 460 529 37,000  Level FlightAware
02:45AM -29.6580 -61.8870 155° Southeast 460 529 37,000  Level FlightAware
02:46AM -29.7180 -61.8570 157° South 460 529 37,000  Level FlightAware
02:46AM -29.7770 -61.8260 155° Southeast 460 529 37,000  Level FlightAware
02:47AM -29.8370 -61.7960 157° South 460 529 37,000  Level FlightAware
02:47AM -29.8990 -61.7640 156° South 460 529 37,000  Level FlightAware
02:48AM -30.0580 -61.6840 156° South 448 516 37,000  Level FlightAware
02:49AM -30.1270 -61.6490 156° South 450 518 37,000  Level FlightAware
02:49AM -30.1910 -61.6160 156° South 451 519 37,000  Level FlightAware
02:50AM -30.2560 -61.5830 156° South 450 518 37,000  Level FlightAware
02:50AM -30.3240 -61.5470 155° Southeast 450 518 37,000  Level FlightAware
02:51AM -30.3970 -61.5100 156° South 451 519 37,000  Level FlightAware
02:51AM -30.4570 -61.4790 156° South 452 520 37,000  Level FlightAware
02:52AM -30.5260 -61.4430 156° South 452 520 37,000  Level FlightAware
02:53AM -30.5950 -61.4070 156° South 451 519 37,000  Level FlightAware
02:53AM -30.6570 -61.3750 156° South 452 520 37,000  Level FlightAware
02:54AM -30.7250 -61.3400 156° South 453 521 37,000  Level FlightAware
02:54AM -30.7980 -61.3010 155° Southeast 456 525 37,000  Level FlightAware
02:55AM -30.8590 -61.2690 156° South 455 524 37,000  Level FlightAware
02:56AM -30.9290 -61.2330 156° South 449 517 37,000  Level FlightAware
02:56AM -30.9970 -61.1970 156° South 447 514 37,000 60 Level FlightAware
02:57AM -31.0620 -61.1630 156° South 442 509 37,100 60 Climbing FlightAware
02:57AM -31.1210 -61.1320 156° South 444 511 37,100  Level FlightAware
02:58AM -31.1920 -61.0950 156° South 451 519 37,100  Level FlightAware
02:58AM -31.2600 -61.0590 156° South 452 520 37,100  Level FlightAware
02:59AM -31.3290 -61.0230 156° South 449 517 37,100  Level FlightAware
03:00AM -31.3900 -60.9900 155° Southeast 448 516 37,100  Level FlightAware
03:00AM -31.4570 -60.9550 156° South 449 517 37,100  Level FlightAware
03:01AM -31.5170 -60.9230 156° South 450 518 37,100  Level FlightAware
03:01AM -31.5880 -60.8860 156° South 451 519 37,100  Level FlightAware
03:02AM -31.6590 -60.8480 156° South 452 520 37,100  Level FlightAware
03:03AM -31.7260 -60.8130 156° South 452 520 37,100  Level FlightAware
03:03AM -31.7850 -60.7800 155° Southeast 452 520 37,100  Level FlightAware
03:04AM -31.8430 -60.7480 155° Southeast 452 520 37,100  Level FlightAware
03:04AM -31.9010 -60.7160 155° Southeast 452 520 37,100  Level FlightAware
03:05AM -31.9590 -60.6850 156° South 452 520 37,100  Level FlightAware
03:06AM -32.0170 -60.6530 155° Southeast 452 520 37,100  Level FlightAware
03:06AM -32.0750 -60.6210 155° Southeast 452 520 37,100  Level FlightAware
03:07AM -32.1330 -60.5890 155° Southeast 452 520 37,100  Level FlightAware
03:07AM -32.1910 -60.5570 155° Southeast 452 520 37,100  Level FlightAware
03:08AM -32.2490 -60.5250 155° Southeast 452 520 37,100  Level FlightAware
03:09AM -32.3070 -60.4930 155° Southeast 452 520 37,100  Level FlightAware
03:09AM -32.3670 -60.4600 155° Southeast 452 520 37,100  Level FlightAware
03:10AM -32.4250 -60.4280 155° Southeast 452 520 37,100  Level FlightAware
03:10AM -32.4830 -60.3960 155° Southeast 452 520 37,100  Level FlightAware
03:11AM -32.5410 -60.3640 155° Southeast 452 520 37,100  Level FlightAware
03:11AM -32.5910 -60.3360 155° Southeast 452 520 37,100  Level FlightAware
03:12AM -32.6500 -60.3030 155° Southeast 452 520 37,100 -1,560 Level FlightAware
03:13AM -32.9030 -60.1760 157° South 445 512 34,900 -1,620 Descending FlightAware
03:14AM -32.9600 -60.1440 155° Southeast 445 512 34,900  Level FlightAware
03:14AM -33.0170 -60.1130 155° Southeast 445 512 34,900  Level FlightAware
03:15AM -33.0740 -60.0810 155° Southeast 445 512 34,900  Level FlightAware
03:15AM -33.1310 -60.0490 155° Southeast 445 512 34,900  Level FlightAware
03:16AM -33.1880 -60.0170 155° Southeast 445 512 34,900  Level FlightAware
03:17AM -33.2470 -59.9840 155° Southeast 445 512 34,900 -4,440 Level FlightAware
03:17AM -33.3580 -59.9250 156° South 27,900 -6,660 Descending FlightAware
03:18AM -33.4220 -59.8900 155° Southeast 388 447 26,700 -2,160 Descending FlightAware
03:18AM -33.4900 -59.8500 154° Southeast 411 473 25,200 -2,640 Descending FlightAware
03:19AM -33.5520 -59.8050 149° Southeast 431 496 23,300 -2,580 Descending FlightAware
03:20AM -33.6040 -59.7670 149° Southeast 426 490 22,300 -1,980 Descending FlightAware
03:20AM -33.6690 -59.7180 148° Southeast 419 482 21,100 -1,800 Descending FlightAware
03:21AM -33.7280 -59.6750 149° Southeast 415 478 20,100 -1,680 Descending FlightAware
03:21AM -33.7860 -59.6320 148° Southeast 409 471 19,100 -1,680 Descending FlightAware
03:22AM -33.8320 -59.5970 148° Southeast 407 468 18,300 -1,680 Descending FlightAware
03:23AM -33.8950 -59.5510 149° Southeast 402 463 17,200 -1,740 Descending FlightAware
03:23AM -33.9400 -59.5170 148° Southeast 395 455 16,400 -1,680 Descending FlightAware
03:24AM -34.0060 -59.4670 148° Southeast 386 444 15,200 -1,620 Descending FlightAware
03:24AM -34.0560 -59.4310 149° Southeast 380 437 14,400 -1,500 Descending FlightAware
03:25AM -34.1090 -59.3910 148° Southeast 374 430 13,500 -1,500 Descending FlightAware
03:25AM -34.1610 -59.3510 148° Southeast 368 423 12,600 -1,500 Descending FlightAware
03:26AM -34.2070 -59.3170 149° Southeast 359 413 11,800 -1,200 Descending FlightAware
03:27AM -34.2600 -59.2770 148° Southeast 337 388 11,200 -780 Descending FlightAware
03:27AM -34.3050 -59.2420 147° Southeast 314 361 10,900 -480 Descending FlightAware
03:28AM -34.3410 -59.2160 149° Southeast 298 343 10,700 -900 Descending FlightAware
03:28AM -34.3850 -59.1820 147° Southeast 295 339 9,900 -1,260 Descending FlightAware
03:29AM -34.4080 -59.1650 149° Southeast 295 339 9,500 -840 Descending FlightAware
03:29AM -34.4270 -59.1510 149° Southeast 283 326 9,400 -720 Descending FlightAware
03:29AM -34.4490 -59.1340 147° Southeast 277 319 9,100 -1,200 Descending FlightAware
03:30AM -34.4720 -59.1170 149° Southeast 278 320 8,600 -1,380 Descending FlightAware
03:30AM -34.4930 -59.1010 148° Southeast 277 319 8,200 -1,380 Descending FlightAware
03:30AM -34.5190 -59.0810 148° Southeast 279 321 7,600 -1,260 Descending FlightAware
03:31AM -34.5410 -59.0650 149° Southeast 273 314 7,300 -1,080 Descending FlightAware
03:31AM -34.5620 -59.0490 148° Southeast 271 312 6,900 -1,080 Descending FlightAware
03:31AM -34.5840 -59.0320 148° Southeast 267 307 6,600 -960 Descending FlightAware
03:32AM -34.6090 -59.0130 148° Southeast 261 300 6,200 -960 Descending FlightAware
03:32AM -34.6290 -58.9980 148° Southeast 259 298 5,900 -900 Descending FlightAware
03:32AM -34.6500 -58.9820 148° Southeast 256 295 5,600 -840 Descending FlightAware
03:33AM -34.6640 -58.9710 147° Southeast 254 292 5,400 -900 Descending FlightAware
03:33AM -34.6850 -58.9550 148° Southeast 253 291 5,100 -600 Descending FlightAware
03:33AM -34.7040 -58.9400 147° Southeast 249 287 5,000 -180 Descending FlightAware
03:34AM -34.7230 -58.9260 149° Southeast 234 269 5,000  Level FlightAware
03:34AM -34.7440 -58.9090 146° Southeast 208 239 5,000  Level FlightAware
03:34AM -34.7540 -58.9010 147° Southeast 205 236 5,000 -300 Level FlightAware
03:34AM -34.7570 -58.8920 112° Southeast 207 238 4,900 -900 Descending FlightAware
03:35AM -34.7620 -58.8700 105° East 210 242 4,600 -900 Descending FlightAware
03:35AM -34.7660 -58.8470 102° East 207 238 4,300 -1,020 Descending FlightAware
03:35AM -34.7690 -58.8290 101° East 204 235 4,000 -1,020 Descending FlightAware
03:36AM -34.7730 -58.8070 102° East 202 232 3,700 -1,080 Descending FlightAware
03:36AM -34.7770 -58.7840 102° East 204 235 3,300 -1,080 Descending FlightAware
03:36AM -34.7810 -58.7620 102° East 203 234 3,000 -960 Descending FlightAware
03:37AM -34.7860 -58.7360 103° East 200 230 2,600 -1,140 Descending FlightAware
03:37AM -34.7900 -58.7130 102° East 199 229 2,200 -600 Descending FlightAware
03:37AM -34.7940 -58.6920 103° East 195 224 2,200 -420 Level FlightAware
03:38AM -34.7990 -58.6660 103° East 189 217 1,900 -840 Descending FlightAware
03:38AM -34.8020 -58.6460 100° East 181 208 1,600 -960 Descending FlightAware
03:39AM -34.8060 -58.6270 104° East 165 190 1,300 -900 Descending FlightAware
03:39AM -34.8090 -58.6070 100° East 154 177 1,000 -900 Descending FlightAware
03:39AM -34.8120 -58.5900 102° East 158 182 700 -840 Descending FlightAware
03:40AM -34.8160 -58.5710 104° East 157 181 400 -840 Descending FlightAware
03:40AM -34.8180 -58.5590 101° East 150 173 200 -300 Descending FlightAware
03:40AM -34.8210 -58.5400 101° East 150 173 200  Level FlightAware